Qway, New Mexico
Current Conditions -  °F | °C
As of 6:53 AM on Friday 19 Dec 2014 (Local Time) from KTCC Reporting Station
Haze Haze  
Wind Chill: 31°   Ceiling: 800
Heat Index: 35°   Visibility: 6mi
Dew Point: 31°   Wind: 5mph
Humidity: 85%   Direction: 350°N
Pressure: 30.12"   Gusts: NA
Location:  34.9519°N, 103.772°W
Report Text: KTCC 191353Z AUTO 35004KT 6SM BR OVC008 02/M01 A3012 RMK AO2 SLP199 T00171006
Loading
Personal Weather Stations






























Interactive Weather Map New forecast layout! Learn more

10-Day Weather Forecast

Advertisements
Track Severe Weather on mobile